Time;durP1;ratioP1;P1;durP2;ratioP2;P2;SDS_P1;SDS_P2;PMS_P1;PMS_P2;Temp;Humidity;BMP_temperature;BMP_pressure;BME280_temperature;BME280_humidity;BME280_pressure;Samples;Min_cycle;Max_cycle;Signal;HPM_P1;HPM_P2
2022/06/13 00:01:24;;;;;;;6.97;2.33;;;;;;;18.56;100.00;99268.78;5033019;28;20209;-80
2022/06/13 00:03:53;;;;;;;8.00;2.43;;;;;;;18.37;100.00;99269.69;5033096;28;20244;-81
2022/06/13 00:06:22;;;;;;;5.37;2.67;;;;;;;18.46;100.00;99263.47;5029273;28;20202;-80
2022/06/13 00:08:52;;;;;;;4.30;2.17;;;;;;;18.61;100.00;99271.88;5031884;28;20205;-81
2022/06/13 00:11:23;;;;;;;5.17;2.23;;;;;;;18.48;100.00;99263.31;5027121;28;20228;-81
2022/06/13 00:13:54;;;;;;;9.63;2.40;;;;;;;18.40;100.00;99260.50;5032271;28;20205;-80
2022/06/13 00:16:23;;;;;;;7.23;2.40;;;;;;;18.38;100.00;99263.34;5034413;28;20229;-81
2022/06/13 00:18:51;;;;;;;4.87;1.87;;;;;;;18.24;100.00;99266.50;5032548;28;20213;-81
2022/06/13 00:21:21;;;;;;;4.40;2.37;;;;;;;18.26;100.00;99267.19;5028587;28;20263;-80
2022/06/13 00:23:50;;;;;;;8.40;2.30;;;;;;;18.30;100.00;99268.56;5037619;27;20201;-80
2022/06/13 00:26:22;;;;;;;5.10;2.30;;;;;;;18.06;100.00;99273.56;5031885;28;20197;-80
2022/06/13 00:28:50;;;;;;;5.03;2.13;;;;;;;18.02;100.00;99281.03;5033760;28;20198;-81
2022/06/13 00:31:19;;;;;;;5.87;2.43;;;;;;;17.84;100.00;99282.72;5093435;28;20230;-79
2022/06/13 00:33:48;;;;;;;8.03;2.57;;;;;;;17.76;100.00;99282.56;5091738;28;20725;-79
2022/06/13 00:36:17;;;;;;;5.73;2.20;;;;;;;17.85;100.00;99279.06;5091230;28;20271;-81
2022/06/13 00:38:46;;;;;;;5.07;1.87;;;;;;;17.88;100.00;99278.78;5086054;28;20223;-80
2022/06/13 00:41:18;;;;;;;3.27;2.17;;;;;;;17.87;100.00;99279.78;5084498;28;20195;-81
2022/06/13 00:43:48;;;;;;;6.60;2.10;;;;;;;17.80;100.00;99278.66;5088286;28;20192;-80
2022/06/13 00:46:20;;;;;;;8.27;2.20;;;;;;;17.82;100.00;99272.16;5090259;28;20267;-81
2022/06/13 00:48:52;;;;;;;5.90;1.93;;;;;;;17.74;100.00;99261.28;5087826;28;20315;-80
2022/06/13 00:51:20;;;;;;;6.37;2.17;;;;;;;17.74;100.00;99270.16;5092809;28;20219;-80
2022/06/13 00:53:50;;;;;;;5.17;2.20;;;;;;;17.66;100.00;99264.66;5084956;28;20204;-81
2022/06/13 00:56:21;;;;;;;6.07;2.23;;;;;;;17.57;100.00;99276.22;5046282;28;20194;-81
2022/06/13 00:58:55;;;;;;;3.77;1.90;;;;;;;17.37;100.00;99275.34;5035280;28;20197;-80
2022/06/13 01:01:25;;;;;;;6.17;2.10;;;;;;;17.35;100.00;99269.25;5030901;28;20273;-80
2022/06/13 01:03:54;;;;;;;6.23;2.37;;;;;;;17.11;100.00;99275.00;5033891;28;20194;-81
2022/06/13 01:06:23;;;;;;;9.43;2.40;;;;;;;17.01;100.00;99279.47;5035841;28;20209;-80
2022/06/13 01:08:51;;;;;;;5.60;1.93;;;;;;;16.97;100.00;99278.03;5027513;28;20197;-80
2022/06/13 01:11:24;;;;;;;6.17;2.00;;;;;;;16.81;100.00;99286.59;5031683;28;20221;-80
2022/06/13 01:14:20;;;;;;;6.43;2.07;;;;;;;16.68;100.00;99279.72;5026881;28;20652;-80
2022/06/13 01:17:04;;;;;;;5.93;2.20;;;;;;;16.76;100.00;99286.13;5036405;28;20215;-81
2022/06/13 01:19:58;;;;;;;5.53;2.03;;;;;;;16.65;100.00;99286.19;5029460;28;20194;-80
2022/06/13 01:23:00;;;;;;;7.03;2.20;;;;;;;16.59;100.00;99278.69;5036235;27;20701;-79
2022/06/13 01:25:45;;;;;;;6.73;2.23;;;;;;;16.63;100.00;99277.47;5018896;28;20319;-80
2022/06/13 01:28:58;;;;;;;9.63;2.23;;;;;;;16.49;100.00;99280.47;5027495;28;20205;-80
2022/06/13 01:31:36;;;;;;;7.93;2.10;;;;;;;16.44;100.00;99280.88;4958922;28;20318;-80
2022/06/13 01:34:16;;;;;;;5.43;2.30;;;;;;;16.50;100.00;99282.16;5021611;28;20281;-80
2022/06/13 01:36:57;;;;;;;10.27;2.90;;;;;;;16.48;100.00;99281.47;5029231;28;20202;-80
2022/06/13 01:39:40;;;;;;;8.00;2.00;;;;;;;16.48;100.00;99284.13;5028454;28;20193;-80
2022/06/13 01:42:17;;;;;;;6.43;2.13;;;;;;;16.27;100.00;99284.16;5037027;27;20198;-80
2022/06/13 01:44:57;;;;;;;5.60;2.40;;;;;;;16.37;100.00;99281.53;5027246;28;20234;-80
2022/06/13 01:47:36;;;;;;;7.27;2.13;;;;;;;16.27;100.00;99286.81;5027179;28;20212;-81
2022/06/13 01:50:19;;;;;;;5.93;2.20;;;;;;;16.12;100.00;99280.97;5031092;28;20222;-80
2022/06/13 01:52:53;;;;;;;7.80;2.20;;;;;;;16.21;100.00;99282.00;5026272;28;20225;-80
2022/06/13 01:55:30;;;;;;;7.60;2.57;;;;;;;16.08;100.00;99278.69;5032033;28;20201;-80
2022/06/13 01:58:08;;;;;;;5.87;2.00;;;;;;;16.26;100.00;99283.31;5030836;28;20206;-81
2022/06/13 02:00:39;;;;;;;4.57;2.20;;;;;;;16.35;100.00;99280.81;5027014;28;20204;-80
2022/06/13 02:03:16;;;;;;;8.43;2.70;;;;;;;16.19;100.00;99274.09;5030578;28;20226;-80
2022/06/13 02:05:51;;;;;;;6.33;2.37;;;;;;;16.28;100.00;99265.31;5030730;28;20209;-81
2022/06/13 02:08:24;;;;;;;5.67;1.90;;;;;;;16.11;100.00;99281.94;5026466;28;20186;-81
2022/06/13 02:10:57;;;;;;;6.53;2.30;;;;;;;15.94;100.00;99279.84;5031341;28;20194;-80
2022/06/13 02:13:33;;;;;;;5.93;2.10;;;;;;;15.88;100.00;99280.34;5034175;28;20217;-80
2022/06/13 02:16:08;;;;;;;6.30;2.40;;;;;;;15.90;100.00;99276.56;5025598;28;20276;-80
2022/06/13 02:18:45;;;;;;;6.43;2.30;;;;;;;15.90;100.00;99287.25;5036641;28;20335;-81
2022/06/13 02:21:15;;;;;;;4.47;2.10;;;;;;;15.94;100.00;99301.22;5036554;27;20197;-80
2022/06/13 02:23:49;;;;;;;5.33;2.50;;;;;;;15.83;100.00;99293.28;5030660;28;20194;-80
2022/06/13 02:26:23;;;;;;;5.23;2.07;;;;;;;15.86;100.00;99283.16;5027810;28;20197;-81
2022/06/13 02:28:56;;;;;;;6.10;2.17;;;;;;;15.73;100.00;99286.03;4994533;28;20192;-81
2022/06/13 02:31:33;;;;;;;5.63;2.30;;;;;;;15.86;100.00;99282.31;5067641;28;20303;-80
2022/06/13 02:34:09;;;;;;;6.70;2.30;;;;;;;15.73;100.00;99277.16;5064351;28;20196;-80
2022/06/13 02:36:43;;;;;;;4.27;2.07;;;;;;;15.69;100.00;99273.88;5066653;28;20229;-80
2022/06/13 02:39:19;;;;;;;7.80;2.23;;;;;;;15.77;100.00;99267.91;5065555;28;20208;-81
2022/06/13 02:41:55;;;;;;;3.17;1.87;;;;;;;15.87;100.00;99273.31;5065076;28;20283;-80
2022/06/13 02:44:28;;;;;;;7.87;1.90;;;;;;;15.83;100.00;99270.09;5064751;28;20200;-80
2022/06/13 02:47:03;;;;;;;4.73;1.97;;;;;;;15.89;100.00;99268.69;5068163;28;20209;-80
2022/06/13 02:49:39;;;;;;;6.03;2.70;;;;;;;15.94;100.00;99264.69;5048235;28;20205;-80
2022/06/13 02:52:18;;;;;;;4.90;2.00;;;;;;;15.81;100.00;99266.66;5000264;28;20217;-80
2022/06/13 02:54:50;;;;;;;2.83;1.80;;;;;;;15.99;100.00;99272.28;5029988;28;20197;-80
2022/06/13 02:57:49;;;;;;;5.77;2.13;;;;;;;15.86;100.00;99275.16;5078468;28;20210;-81
2022/06/13 03:00:35;;;;;;;4.17;2.10;;;;;;;15.60;100.00;99284.44;5027228;28;20202;-81
2022/06/13 03:03:18;;;;;;;7.40;2.20;;;;;;;15.55;100.00;99284.84;5030994;28;20243;-81
2022/06/13 03:06:00;;;;;;;4.53;2.43;;;;;;;15.42;100.00;99287.66;5030511;28;20205;-81
2022/06/13 03:08:55;;;;;;;5.00;2.00;;;;;;;15.51;100.00;99296.72;5035547;28;20213;-80
2022/06/13 03:11:36;;;;;;;4.37;1.80;;;;;;;15.21;100.00;99293.91;5030849;28;20197;-80
2022/06/13 03:14:30;;;;;;;5.40;2.10;;;;;;;15.08;100.00;99294.03;5033631;28;20201;-81
2022/06/13 03:17:03;;;;;;;4.40;2.10;;;;;;;14.72;100.00;99297.81;5019631;28;20208;-80
2022/06/13 03:19:38;;;;;;;6.57;2.13;;;;;;;14.76;100.00;99292.09;5032479;28;20193;-80
2022/06/13 03:22:14;;;;;;;4.80;2.13;;;;;;;14.72;100.00;99293.34;5031966;28;20205;-80
2022/06/13 03:24:56;;;;;;;3.30;1.80;;;;;;;14.59;100.00;99305.94;5032893;28;20201;-81
2022/06/13 03:27:34;;;;;;;5.03;1.93;;;;;;;14.35;100.00;99310.47;5033151;28;20228;-80
2022/06/13 03:30:08;;;;;;;6.40;2.13;;;;;;;14.49;100.00;99302.28;5032810;28;20197;-80
2022/06/13 03:32:44;;;;;;;7.53;1.90;;;;;;;14.49;100.00;99304.97;5031160;28;20236;-80
2022/06/13 03:35:16;;;;;;;3.33;1.90;;;;;;;14.52;100.00;99307.38;5032922;28;20198;-80
2022/06/13 03:37:49;;;;;;;4.90;1.80;;;;;;;14.52;100.00;99308.22;5032105;28;20198;-81
2022/06/13 03:40:23;;;;;;;4.87;2.10;;;;;;;14.45;100.00;99304.31;5036695;28;20198;-80
2022/06/13 03:42:57;;;;;;;3.40;1.63;;;;;;;14.57;100.00;99314.06;5033075;28;20192;-80
2022/06/13 03:45:30;;;;;;;3.67;1.97;;;;;;;14.69;100.00;99316.72;5031671;28;20194;-81
2022/06/13 03:48:05;;;;;;;5.87;1.90;;;;;;;14.86;100.00;99321.56;5028861;28;20284;-80
2022/06/13 03:50:39;;;;;;;4.40;1.80;;;;;;;14.70;100.00;99329.94;5033072;28;20204;-80
2022/06/13 03:53:15;;;;;;;4.57;1.80;;;;;;;14.94;100.00;99320.97;5028326;28;20304;-80
2022/06/13 03:55:54;;;;;;;4.30;1.90;;;;;;;14.87;100.00;99323.28;5034301;28;20640;-80
2022/06/13 03:58:30;;;;;;;5.37;2.07;;;;;;;14.91;100.00;99335.41;5032040;28;20194;-80
2022/06/13 04:01:04;;;;;;;5.30;2.00;;;;;;;14.85;100.00;99328.72;5034341;28;20204;-80
2022/06/13 04:03:33;;;;;;;5.43;1.80;;;;;;;14.82;100.00;99330.78;5038807;28;20197;-80
2022/06/13 04:06:05;;;;;;;3.23;1.70;;;;;;;14.82;100.00;99334.31;5038445;28;20217;-80
2022/06/13 04:08:38;;;;;;;3.30;2.10;;;;;;;14.80;100.00;99333.59;5033147;28;20190;-80
2022/06/13 04:11:18;;;;;;;4.67;2.17;;;;;;;14.67;100.00;99332.84;5033149;28;20218;-80
2022/06/13 04:14:01;;;;;;;2.63;1.63;;;;;;;14.75;100.00;99335.75;5034476;28;20300;-80
2022/06/13 04:16:43;;;;;;;5.10;2.00;;;;;;;14.54;100.00;99346.25;5036044;28;20223;-80
2022/06/13 04:19:32;;;;;;;3.27;2.00;;;;;;;14.46;100.00;99343.34;5036188;28;20208;-79
2022/06/13 04:22:11;;;;;;;4.17;1.90;;;;;;;14.15;100.00;99344.81;5035040;28;20258;-79
2022/06/13 04:24:54;;;;;;;5.40;2.37;;;;;;;14.18;100.00;99346.38;5037592;28;20201;-79
2022/06/13 04:27:25;;;;;;;5.50;2.40;;;;;;;14.20;100.00;99355.97;5028400;28;20202;-79
2022/06/13 04:30:03;;;;;;;3.87;2.20;;;;;;;14.29;100.00;99357.94;5032193;28;20201;-79
2022/06/13 04:32:39;;;;;;;5.17;2.40;;;;;;;14.03;100.00;99362.56;5033161;28;20230;-79
2022/06/13 04:35:08;;;;;;;6.20;2.70;;;;;;;14.07;100.00;99371.16;5031808;28;20204;-79
2022/06/13 04:37:39;;;;;;;7.13;2.37;;;;;;;14.13;100.00;99361.88;5028842;28;20277;-79
2022/06/13 04:40:16;;;;;;;7.83;2.30;;;;;;;14.14;100.00;99359.09;5032118;28;20204;-79
2022/06/13 04:42:45;;;;;;;6.43;2.47;;;;;;;14.34;100.00;99352.25;5027727;28;20205;-79
2022/06/13 04:45:21;;;;;;;6.93;2.20;;;;;;;14.41;100.00;99348.16;5029227;28;20209;-79
2022/06/13 04:47:53;;;;;;;4.80;2.40;;;;;;;14.32;100.00;99348.84;5026726;28;20204;-79
2022/06/13 04:50:36;;;;;;;6.83;2.67;;;;;;;14.55;100.00;99347.97;5038102;27;20212;-79
2022/06/13 04:53:08;;;;;;;4.67;2.30;;;;;;;14.59;100.00;99348.59;5030685;28;20300;-79
2022/06/13 04:55:42;;;;;;;5.63;2.40;;;;;;;14.66;100.00;99343.59;5027722;28;20202;-80
2022/06/13 04:58:17;;;;;;;5.40;2.10;;;;;;;14.69;100.00;99344.25;5032084;28;20202;-79
2022/06/13 05:00:47;;;;;;;6.27;2.10;;;;;;;14.94;100.00;99348.47;5037861;27;20208;-79
2022/06/13 05:03:21;;;;;;;5.63;2.20;;;;;;;15.00;100.00;99353.34;5026709;28;20205;-80
2022/06/13 05:05:53;;;;;;;5.70;2.10;;;;;;;15.13;100.00;99362.06;5036026;28;20273;-80
2022/06/13 05:08:25;;;;;;;6.10;2.57;;;;;;;15.04;100.00;99364.59;5030442;28;20194;-80
2022/06/13 05:10:59;;;;;;;3.37;2.03;;;;;;;15.18;100.00;99367.88;5031441;28;20186;-80
2022/06/13 05:13:27;;;;;;;3.07;1.90;;;;;;;15.17;100.00;99365.34;5088825;28;20215;-80
2022/06/13 05:16:06;;;;;;;4.87;2.10;;;;;;;15.24;100.00;99373.69;5090318;28;20207;-80
2022/06/13 05:18:50;;;;;;;7.63;2.60;;;;;;;15.26;100.00;99371.78;5085881;28;20199;-80
2022/06/13 05:21:34;;;;;;;4.70;2.23;;;;;;;15.32;100.00;99371.25;5088534;28;20322;-80
2022/06/13 05:24:27;;;;;;;5.87;2.37;;;;;;;15.23;100.00;99377.34;5087119;28;20203;-80
2022/06/13 05:26:57;;;;;;;5.73;2.30;;;;;;;15.37;100.00;99371.75;5089453;28;20192;-81
2022/06/13 05:29:25;;;;;;;5.83;2.10;;;;;;;15.40;100.00;99379.50;5088390;28;20232;-79
2022/06/13 05:31:54;;;;;;;7.30;2.30;;;;;;;15.32;100.00;99389.94;5050673;28;20226;-80
2022/06/13 05:34:31;;;;;;;4.93;1.93;;;;;;;15.45;100.00;99401.38;5031053;28;20722;-81
2022/06/13 05:37:01;;;;;;;5.53;2.50;;;;;;;15.56;100.00;99400.50;5027886;28;20190;-80
2022/06/13 05:39:30;;;;;;;7.10;2.00;;;;;;;15.53;100.00;99398.91;5031160;28;20198;-80
2022/06/13 05:42:00;;;;;;;5.97;2.30;;;;;;;15.60;100.00;99407.28;5031691;28;20277;-81
2022/06/13 05:44:28;;;;;;;4.53;2.33;;;;;;;15.66;100.00;99401.47;5034323;28;20194;-80
2022/06/13 05:46:57;;;;;;;4.93;2.20;;;;;;;15.76;100.00;99399.75;5034274;28;20217;-80
2022/06/13 05:49:25;;;;;;;5.90;2.00;;;;;;;15.61;100.00;99404.50;5029209;28;20202;-80
2022/06/13 05:51:53;;;;;;;7.27;2.30;;;;;;;15.81;100.00;99399.38;5030495;28;20206;-79
2022/06/13 05:54:25;;;;;;;5.63;2.23;;;;;;;15.89;100.00;99389.75;5028621;28;20229;-80
2022/06/13 05:56:53;;;;;;;6.33;2.37;;;;;;;16.04;100.00;99382.31;5072354;28;20200;-79
2022/06/13 05:59:23;;;;;;;7.27;2.23;;;;;;;16.31;100.00;99382.69;5069178;28;20276;-80
2022/06/13 06:01:51;;;;;;;4.90;2.40;;;;;;;16.38;100.00;99374.97;5066010;28;20193;-79
2022/06/13 06:04:19;;;;;;;6.83;2.37;;;;;;;16.39;100.00;99368.66;5063531;28;20667;-79
2022/06/13 06:06:50;;;;;;;6.30;2.30;;;;;;;16.47;100.00;99378.69;5063078;28;20196;-80
2022/06/13 06:09:18;;;;;;;7.10;2.27;;;;;;;16.49;100.00;99384.75;5064571;28;20200;-80
2022/06/13 06:11:47;;;;;;;5.90;2.20;;;;;;;16.50;100.00;99387.31;5067198;28;20299;-80
2022/06/13 06:14:16;;;;;;;5.67;2.40;;;;;;;16.43;100.00;99380.78;5056854;28;20245;-79
2022/06/13 06:16:45;;;;;;;4.43;2.20;;;;;;;16.38;100.00;99385.66;5030930;28;20648;-80
2022/06/13 06:19:14;;;;;;;8.37;2.27;;;;;;;16.42;100.00;99394.28;5031062;28;20185;-79
2022/06/13 06:21:42;;;;;;;5.17;2.63;;;;;;;16.40;100.00;99398.91;5024834;28;20273;-80
2022/06/13 06:24:10;;;;;;;5.43;2.70;;;;;;;16.24;100.00;99405.56;5028701;28;20197;-79
2022/06/13 06:26:38;;;;;;;9.87;2.37;;;;;;;16.13;100.00;99412.78;5030815;28;20194;-79
2022/06/13 06:29:09;;;;;;;9.20;2.73;;;;;;;16.18;100.00;99414.06;5022280;28;20194;-79
2022/06/13 06:31:37;;;;;;;5.73;2.40;;;;;;;16.26;100.00;99418.78;5030310;28;20238;-80
2022/06/13 06:34:07;;;;;;;7.03;2.57;;;;;;;16.33;100.00;99422.66;5026220;28;20222;-80
2022/06/13 06:36:35;;;;;;;6.40;2.60;;;;;;;16.43;100.00;99426.25;5028068;28;20197;-80
2022/06/13 06:39:04;;;;;;;4.50;2.73;;;;;;;16.41;100.00;99427.38;5029509;28;20220;-80
2022/06/13 06:41:32;;;;;;;8.60;2.73;;;;;;;16.51;100.00;99421.13;5035046;28;20202;-80
2022/06/13 06:44:00;;;;;;;6.47;2.90;;;;;;;16.59;100.00;99423.97;5028241;28;20221;-80
2022/06/13 06:46:29;;;;;;;6.60;2.90;;;;;;;16.78;100.00;99423.28;5026748;28;20284;-80
2022/06/13 06:48:57;;;;;;;9.90;2.83;;;;;;;16.92;100.00;99421.25;5031600;28;20206;-80
2022/06/13 06:51:29;;;;;;;6.17;2.73;;;;;;;17.01;100.00;99418.66;5037938;28;20649;-80
2022/06/13 07:02:16;;;;;;;7.90;2.33;;;;;;;17.38;100.00;99408.25;5033931;28;20197;-80
2022/06/13 07:04:44;;;;;;;6.80;2.30;;;;;;;17.50;100.00;99402.78;5036397;28;20212;-80
2022/06/13 07:07:14;;;;;;;10.17;3.00;;;;;;;17.46;100.00;99411.06;5022379;28;20217;-80
2022/06/13 07:09:42;;;;;;;7.90;2.70;;;;;;;17.63;100.00;99411.41;5026527;28;20656;-80
2022/06/13 07:12:11;;;;;;;7.43;2.60;;;;;;;17.53;100.00;99415.91;5033851;28;20197;-80
2022/06/13 07:14:40;;;;;;;8.13;2.73;;;;;;;17.73;100.00;99404.28;4991965;28;20246;-80
2022/06/13 07:17:09;;;;;;;7.67;2.90;;;;;;;17.68;100.00;99407.34;4992161;28;20278;-80
2022/06/13 07:19:38;;;;;;;7.33;2.67;;;;;;;18.05;100.00;99419.28;4992796;28;20199;-80
2022/06/13 07:22:08;;;;;;;9.27;3.00;;;;;;;17.81;100.00;99417.84;4994257;28;20188;-80
2022/06/13 07:24:38;;;;;;;8.00;3.07;;;;;;;17.77;100.00;99413.75;4995370;28;20203;-80
2022/06/13 07:27:07;;;;;;;7.37;2.33;;;;;;;17.83;100.00;99415.03;4993272;28;20310;-80
2022/06/13 07:29:35;;;;;;;8.97;2.93;;;;;;;17.91;100.00;99421.38;4998472;28;20207;-80
2022/06/13 07:32:07;;;;;;;9.47;3.07;;;;;;;18.08;100.00;99421.72;4996493;28;20222;-81
2022/06/13 07:34:37;;;;;;;3.93;2.27;;;;;;;18.09;100.00;99423.41;5031445;28;20225;-81
2022/06/13 07:37:08;;;;;;;9.57;2.47;;;;;;;18.27;100.00;99424.41;5030576;28;20198;-80
2022/06/13 07:39:38;;;;;;;6.80;2.57;;;;;;;18.52;100.00;99425.66;5033471;28;20189;-81
2022/06/13 07:42:13;;;;;;;9.67;2.80;;;;;;;18.78;100.00;99423.28;5030549;28;20710;-81
2022/06/13 07:44:41;;;;;;;6.67;2.60;;;;;;;18.98;100.00;99427.59;5039370;27;20233;-80
2022/06/13 07:47:17;;;;;;;6.67;2.57;;;;;;;19.20;100.00;99429.09;5037646;28;20202;-80
2022/06/13 07:49:45;;;;;;;5.60;2.27;;;;;;;19.38;100.00;99423.78;5032972;28;20205;-80
2022/06/13 07:52:13;;;;;;;6.50;2.20;;;;;;;19.30;100.00;99426.38;5027570;28;20316;-81
2022/06/13 07:54:43;;;;;;;5.93;2.27;;;;;;;19.24;100.00;99432.34;5032171;28;20213;-81
2022/06/13 07:57:15;;;;;;;8.60;2.63;;;;;;;19.31;100.00;99428.09;5035471;28;20210;-80
2022/06/13 07:59:43;;;;;;;7.00;2.30;;;;;;;19.17;100.00;99440.13;5023743;28;20198;-80
2022/06/13 08:02:18;;;;;;;5.03;2.27;;;;;;;18.94;100.00;99438.78;5033585;28;20201;-80
2022/06/13 08:04:47;;;;;;;4.50;2.17;;;;;;;18.89;100.00;99441.88;5033068;28;20221;-80
2022/06/13 08:07:26;;;;;;;6.07;2.37;;;;;;;19.01;100.00;99435.38;5028551;28;20648;-80
2022/06/13 08:09:57;;;;;;;4.83;2.10;;;;;;;18.89;100.00;99444.56;5029114;28;20224;-80
2022/06/13 08:12:26;;;;;;;6.10;2.57;;;;;;;18.64;100.00;99451.38;5036754;28;20242;-80
2022/06/13 08:14:55;;;;;;;4.30;2.00;;;;;;;18.56;100.00;99452.06;5032187;28;20214;-80
2022/06/13 08:17:23;;;;;;;6.80;2.10;;;;;;;18.62;100.00;99457.84;5032613;28;20346;-80
2022/06/13 08:19:51;;;;;;;6.83;2.10;;;;;;;18.53;100.00;99464.94;5038409;27;20202;-80
2022/06/13 08:22:20;;;;;;;4.63;1.90;;;;;;;18.38;100.00;99460.97;5028286;28;20213;-80
2022/06/13 08:24:48;;;;;;;5.17;2.20;;;;;;;18.46;100.00;99466.47;5031942;28;20731;-80
2022/06/13 08:27:18;;;;;;;5.80;2.60;;;;;;;18.57;100.00;99461.81;5032445;28;20202;-81
2022/06/13 08:29:46;;;;;;;7.20;2.30;;;;;;;18.60;100.00;99468.72;5031942;28;20209;-81
2022/06/13 08:32:20;;;;;;;3.83;1.90;;;;;;;18.46;100.00;99472.69;5029260;28;20309;-80
2022/06/13 08:34:49;;;;;;;7.13;2.57;;;;;;;18.38;100.00;99458.28;5034020;28;20229;-80
2022/06/13 08:37:17;;;;;;;7.80;2.80;;;;;;;18.38;100.00;99469.84;5031224;28;20209;-80
2022/06/13 08:39:46;;;;;;;6.90;2.40;;;;;;;18.22;100.00;99470.41;5030929;28;20210;-81
2022/06/13 08:42:23;;;;;;;5.07;2.37;;;;;;;18.28;100.00;99472.53;5036630;28;20213;-80
2022/06/13 08:45:01;;;;;;;6.07;2.70;;;;;;;18.22;100.00;99475.75;5032235;28;20189;-80
2022/06/13 08:47:44;;;;;;;7.63;2.47;;;;;;;18.20;100.00;99477.75;5035408;27;20671;-81
2022/06/13 08:50:18;;;;;;;6.17;2.70;;;;;;;18.40;100.00;99483.13;5032226;28;20194;-80
2022/06/13 08:52:53;;;;;;;7.40;2.80;;;;;;;18.39;100.00;99484.13;5031112;28;20204;-81
2022/06/13 08:55:32;;;;;;;9.03;2.53;;;;;;;18.33;100.00;99488.19;5030729;28;20220;-81
2022/06/13 08:58:11;;;;;;;8.17;2.57;;;;;;;18.54;100.00;99488.09;5031702;28;20200;-81
2022/06/13 09:00:46;;;;;;;8.20;2.53;;;;;;;18.59;100.00;99489.34;5026205;28;20208;-80
2022/06/13 09:03:21;;;;;;;7.77;3.03;;;;;;;18.68;100.00;99494.88;5029074;28;20197;-81
2022/06/13 09:05:56;;;;;;;6.90;2.50;;;;;;;18.81;100.00;99492.75;5030112;28;20198;-81
2022/06/13 09:08:34;;;;;;;9.47;3.20;;;;;;;18.88;100.00;99499.25;5035424;28;20294;-80
2022/06/13 09:11:08;;;;;;;8.63;2.73;;;;;;;18.83;100.00;99488.13;5036555;28;20201;-81
2022/06/13 09:13:42;;;;;;;6.60;2.80;;;;;;;18.68;100.00;99490.38;5030568;28;20284;-80
2022/06/13 09:16:16;;;;;;;8.03;2.60;;;;;;;18.79;100.00;99492.91;5030748;28;20225;-81
2022/06/13 09:18:50;;;;;;;7.73;2.67;;;;;;;18.88;100.00;99497.41;5033178;28;20198;-81
2022/06/13 09:21:30;;;;;;;6.27;2.90;;;;;;;19.21;100.00;99495.25;5025303;28;20205;-81
2022/06/13 09:24:08;;;;;;;5.87;2.53;;;;;;;19.08;100.00;99500.06;5031548;28;20189;-80
2022/06/13 09:26:43;;;;;;;10.47;3.17;;;;;;;19.14;100.00;99486.94;5030304;28;20243;-81
2022/06/13 09:29:18;;;;;;;10.43;3.37;;;;;;;19.58;100.00;99483.69;5028393;28;20353;-81
2022/06/13 09:31:52;;;;;;;9.27;2.97;;;;;;;19.34;100.00;99485.03;5031414;28;20264;-81
2022/06/13 09:34:27;;;;;;;7.50;2.73;;;;;;;19.40;100.00;99492.53;5031168;28;20278;-81
2022/06/13 09:37:05;;;;;;;5.83;2.77;;;;;;;19.59;100.00;99497.03;5033840;28;20217;-81
2022/06/13 09:39:33;;;;;;;6.57;2.80;;;;;;;19.49;100.00;99498.00;5028989;28;20197;-80
2022/06/13 09:42:19;;;;;;;6.03;2.53;;;;;;;19.63;100.00;99492.19;5022973;28;20194;-80
2022/06/13 09:45:03;;;;;;;5.77;2.27;;;;;;;19.36;100.00;99499.16;5037632;27;20201;-80
2022/06/13 09:47:39;;;;;;;8.70;2.63;;;;;;;18.95;100.00;99505.75;5028504;28;20208;-80
2022/06/13 09:50:15;;;;;;;5.33;2.50;;;;;;;18.85;100.00;99515.66;5030897;28;20205;-80
2022/06/13 09:52:54;;;;;;;7.73;2.70;;;;;;;18.64;100.00;99520.28;5029683;28;20201;-80
2022/06/13 09:55:27;;;;;;;5.63;2.40;;;;;;;18.18;100.00;99525.31;5030423;28;20209;-80
2022/06/13 09:58:07;;;;;;;7.07;2.50;;;;;;;17.61;100.00;99541.97;5037427;27;20213;-80
2022/06/13 10:00:42;;;;;;;7.57;2.70;;;;;;;17.17;100.00;99552.84;5033186;28;20291;-80
2022/06/13 10:03:23;;;;;;;6.97;2.43;;;;;;;16.78;100.00;99556.19;5029744;28;20388;-80
2022/06/13 10:06:01;;;;;;;6.30;2.37;;;;;;;16.72;100.00;99554.06;5030716;28;20193;-80
2022/06/13 10:08:46;;;;;;;4.10;2.90;;;;;;;16.72;100.00;99565.59;5027281;28;20241;-80
2022/06/13 10:11:24;;;;;;;6.00;2.70;;;;;;;16.87;100.00;99568.81;5030733;28;20258;-80
2022/06/13 10:14:15;;;;;;;5.23;2.70;;;;;;;16.99;100.00;99565.13;5030816;28;20221;-80
2022/06/13 10:16:55;;;;;;;6.83;2.50;;;;;;;17.25;100.00;99568.25;5026893;28;20278;-80
2022/06/13 10:19:33;;;;;;;7.27;2.63;;;;;;;17.52;100.00;99561.53;5030900;28;20200;-80
2022/06/13 10:22:09;;;;;;;3.60;2.27;;;;;;;17.66;100.00;99554.00;5030684;28;20194;-80
2022/06/13 10:24:48;;;;;;;4.90;2.53;;;;;;;17.97;100.00;99559.38;5038213;28;20201;-80
2022/06/13 10:27:30;;;;;;;6.27;2.40;;;;;;;18.35;100.00;99572.06;5032867;28;20197;-80
2022/06/13 10:30:20;;;;;;;4.70;2.53;;;;;;;19.05;100.00;99551.41;5034038;28;20205;-81
2022/06/13 10:33:18;;;;;;;5.43;2.03;;;;;;;19.67;100.00;99539.25;5034299;28;20231;-81
2022/06/13 10:35:51;;;;;;;7.33;2.33;;;;;;;20.04;100.00;99531.19;5039207;27;20221;-82
2022/06/13 10:38:41;;;;;;;3.43;2.23;;;;;;;20.18;100.00;99537.94;5037566;28;20221;-81
2022/06/13 10:41:11;;;;;;;4.73;2.17;;;;;;;20.08;100.00;99532.59;5030815;28;20210;-81
2022/06/13 10:43:42;;;;;;;4.53;2.43;;;;;;;20.19;100.00;99534.25;5034353;28;20193;-80
2022/06/13 10:46:13;;;;;;;3.60;2.17;;;;;;;20.88;100.00;99528.25;5033729;28;20403;-81
2022/06/13 10:48:48;;;;;;;5.17;2.40;;;;;;;21.19;100.00;99528.66;5037886;28;20210;-81
2022/06/13 10:51:16;;;;;;;6.90;3.27;;;;;;;21.63;100.00;99528.66;5034193;28;20204;-81
2022/06/13 10:53:51;;;;;;;6.97;3.20;;;;;;;21.96;100.00;99525.13;5040016;27;20201;-81
2022/06/13 10:56:23;;;;;;;6.20;3.13;;;;;;;22.11;100.00;99516.44;5031486;28;20223;-81
2022/06/13 10:58:54;;;;;;;7.32;3.50;;;;;;;22.09;97.44;99516.59;5033475;28;20212;-81
2022/06/13 11:01:24;;;;;;;9.52;3.55;;;;;;;21.86;98.27;99510.91;5037421;27;20201;-80
2022/06/13 11:04:04;;;;;;;8.73;3.60;;;;;;;21.79;98.23;99511.72;5033687;28;20190;-81
2022/06/13 11:06:42;;;;;;;7.15;3.33;;;;;;;20.81;100.00;99516.41;5032028;28;20332;-80
2022/06/13 11:09:23;;;;;;;6.35;3.50;;;;;;;20.13;100.00;99521.38;5033271;28;20201;-80
2022/06/13 11:12:02;;;;;;;5.78;3.65;;;;;;;20.41;100.00;99514.97;5031978;28;20194;-80
2022/06/13 11:14:36;;;;;;;8.77;3.80;;;;;;;20.38;100.00;99523.34;5033268;28;20186;-80
2022/06/13 11:22:58;;;;;;;9.63;3.73;;;;;;;20.34;100.00;99521.09;5032548;28;20278;-80
2022/06/13 11:25:29;;;;;;;9.93;3.80;;;;;;;20.65;100.00;99513.53;5037425;28;20667;-81
2022/06/13 11:28:04;;;;;;;6.82;3.58;;;;;;;21.13;100.00;99515.81;5037258;28;20316;-81
2022/06/13 11:30:47;;;;;;;6.65;4.00;;;;;;;21.17;100.00;99506.44;5110023;28;20191;-80
2022/06/13 11:33:26;;;;;;;12.17;3.90;;;;;;;21.39;100.00;99510.47;5070890;28;20224;-81
2022/06/13 11:35:59;;;;;;;8.80;3.77;;;;;;;21.12;92.38;99503.34;5068911;28;20640;-80
2022/06/13 11:38:31;;;;;;;9.55;4.13;;;;;;;21.32;89.51;99499.47;5070976;28;20691;-80
2022/06/13 11:41:07;;;;;;;6.70;3.38;;;;;;;21.19;91.73;99501.72;5071984;28;20200;-80
2022/06/13 11:43:46;;;;;;;8.83;3.70;;;;;;;20.86;93.70;99509.56;5069660;28;20279;-80
2022/06/13 11:46:34;;;;;;;7.33;3.03;;;;;;;20.78;82.96;99505.94;5070441;28;20196;-80
2022/06/13 11:49:07;;;;;;;8.00;3.47;;;;;;;20.85;82.10;99510.56;5036666;28;20228;-80
2022/06/13 11:51:42;;;;;;;7.63;3.93;;;;;;;20.79;88.33;99515.72;5001248;28;20197;-80
2022/06/13 11:54:22;;;;;;;6.33;3.50;;;;;;;20.78;88.00;99506.78;5044464;28;20219;-81
2022/06/13 11:56:50;;;;;;;6.67;3.17;;;;;;;20.48;82.89;99510.72;5047375;28;20221;-80
2022/06/13 11:59:19;;;;;;;9.57;3.40;;;;;;;20.26;82.73;99508.41;5048297;28;20253;-80
2022/06/13 12:01:57;;;;;;;7.60;3.40;;;;;;;19.97;78.09;99508.56;5049556;28;20200;-80
2022/06/13 12:04:26;;;;;;;9.23;3.53;;;;;;;19.93;78.07;99502.66;5048908;28;20192;-78
2022/06/13 12:07:00;;;;;;;8.60;3.43;;;;;;;20.08;80.16;99502.16;5049937;28;20197;-80
2022/06/13 12:09:32;;;;;;;10.63;3.50;;;;;;;20.00;80.38;99498.38;5051221;28;20200;-79
2022/06/13 12:12:03;;;;;;;9.00;3.70;;;;;;;20.63;85.51;99494.00;5053603;28;20201;-79
2022/06/13 12:14:35;;;;;;;11.43;3.67;;;;;;;20.76;77.48;99494.50;5050749;28;20244;-81